Time;durP1;ratioP1;P1;durP2;ratioP2;P2;SDS_P1;SDS_P2;PMS_P1;PMS_P2;Temp;Humidity;BMP_temperature;BMP_pressure;BME280_temperature;BME280_humidity;BME280_pressure;Samples;Min_cycle;Max_cycle;Signal;HPM_P1;HPM_P2
2021/10/17 00:00:00;;;;;;;22.05;12.77;;;;;;;3.75;100.00;96973.88;5021519;28;20045;-63
2021/10/17 00:02:25;;;;;;;24.67;12.25;;;;;;;3.81;100.00;96978.78;5015886;28;20075;-63
2021/10/17 00:04:51;;;;;;;21.23;11.98;;;;;;;3.83;100.00;96975.78;5021580;28;20464;-62
2021/10/17 00:07:16;;;;;;;21.02;12.10;;;;;;;3.87;100.00;96984.06;5016657;28;20045;-62
2021/10/17 00:09:42;;;;;;;18.80;11.38;;;;;;;3.87;100.00;96981.38;5004160;28;20438;-63
2021/10/17 00:12:09;;;;;;;18.77;10.88;;;;;;;3.90;100.00;96986.94;5014293;28;20041;-61
2021/10/17 00:14:35;;;;;;;15.30;10.05;;;;;;;3.89;100.00;96973.72;5021196;28;20479;-63
2021/10/17 00:17:02;;;;;;;16.45;10.38;;;;;;;3.89;100.00;96979.94;5018932;28;20068;-64
2021/10/17 00:19:28;;;;;;;17.88;10.52;;;;;;;3.88;100.00;96982.97;5014525;28;20144;-63
2021/10/17 00:21:53;;;;;;;17.30;10.50;;;;;;;3.80;100.00;96977.22;5019637;28;20132;-63
2021/10/17 00:24:19;;;;;;;15.57;9.80;;;;;;;3.66;100.00;96986.59;5014035;28;20041;-63
2021/10/17 00:26:45;;;;;;;16.38;10.05;;;;;;;3.69;100.00;96985.94;5003674;28;20086;-63
2021/10/17 00:29:10;;;;;;;18.00;11.15;;;;;;;3.72;100.00;96996.16;5014647;28;20087;-63
2021/10/17 00:31:36;;;;;;;15.23;10.38;;;;;;;3.67;100.00;96991.66;5019885;28;20041;-62
2021/10/17 00:34:01;;;;;;;19.80;10.82;;;;;;;3.67;100.00;96986.25;5021540;28;20041;-63
2021/10/17 00:36:28;;;;;;;20.40;11.07;;;;;;;3.62;100.00;96992.63;5015166;28;20152;-62
2021/10/17 00:38:53;;;;;;;18.77;11.68;;;;;;;3.58;100.00;96990.84;5021360;28;20037;-63
2021/10/17 00:41:19;;;;;;;19.38;11.63;;;;;;;3.56;100.00;96990.38;5013676;28;20069;-62
2021/10/17 00:43:48;;;;;;;20.05;11.80;;;;;;;3.57;100.00;96995.47;5024134;28;20045;-63
2021/10/17 00:46:21;;;;;;;19.55;11.50;;;;;;;3.55;100.00;96988.78;4977521;28;20045;-63
2021/10/17 00:48:48;;;;;;;20.30;12.27;;;;;;;3.51;100.00;96988.63;4998537;28;20034;-62
2021/10/17 00:51:15;;;;;;;22.48;12.30;;;;;;;3.59;100.00;96989.75;4991900;28;20441;-63
2021/10/17 00:53:41;;;;;;;21.23;12.82;;;;;;;3.55;100.00;96988.78;5006587;28;20046;-62
2021/10/17 00:56:07;;;;;;;21.15;12.20;;;;;;;3.53;100.00;96994.50;5015357;28;20134;-63
2021/10/17 00:58:33;;;;;;;21.25;12.90;;;;;;;3.51;100.00;96990.50;5019692;28;20092;-63
2021/10/17 01:00:58;;;;;;;27.27;12.95;;;;;;;3.45;100.00;96992.56;5016938;28;20041;-64
2021/10/17 01:03:23;;;;;;;21.90;13.50;;;;;;;3.38;100.00;96989.50;5012284;28;20199;-64
2021/10/17 01:05:50;;;;;;;19.70;12.15;;;;;;;3.33;100.00;96995.06;5019342;28;20120;-64
2021/10/17 01:08:16;;;;;;;20.80;11.93;;;;;;;3.25;100.00;96994.69;5012415;28;20049;-64
2021/10/17 01:10:42;;;;;;;22.45;13.45;;;;;;;3.21;100.00;96995.66;5017790;28;20077;-63
2021/10/17 01:13:17;;;;;;;21.33;12.50;;;;;;;3.19;100.00;96995.16;5013905;28;20122;-62
2021/10/17 01:15:42;;;;;;;18.85;11.20;;;;;;;3.13;100.00;96990.97;5002326;28;20124;-63
2021/10/17 01:18:08;;;;;;;22.23;12.35;;;;;;;3.20;100.00;96991.34;5014340;28;20124;-62
2021/10/17 01:20:33;;;;;;;22.10;12.95;;;;;;;3.25;100.00;96991.22;5019259;28;20464;-64
2021/10/17 01:22:59;;;;;;;21.27;12.80;;;;;;;3.36;100.00;96983.59;5036299;28;20509;-63
2021/10/17 01:25:25;;;;;;;22.85;13.07;;;;;;;3.47;100.00;96986.84;5019894;28;20127;-64
2021/10/17 01:27:50;;;;;;;18.60;12.07;;;;;;;3.44;100.00;96989.06;5037329;28;20453;-64
2021/10/17 01:30:17;;;;;;;20.83;12.23;;;;;;;3.46;100.00;96980.63;5032457;28;20091;-63
2021/10/17 01:32:42;;;;;;;19.58;11.65;;;;;;;3.56;100.00;96983.03;5029064;28;20045;-65
2021/10/17 01:35:08;;;;;;;18.33;11.90;;;;;;;3.64;100.00;96987.69;5004748;28;20033;-64
2021/10/17 01:37:33;;;;;;;21.75;11.55;;;;;;;3.65;100.00;96977.66;5024759;28;20064;-64
2021/10/17 01:39:59;;;;;;;18.90;11.40;;;;;;;3.56;100.00;96983.03;5021503;28;20045;-64
2021/10/17 01:42:24;;;;;;;18.98;12.35;;;;;;;3.67;100.00;96983.53;5031936;28;20037;-65
2021/10/17 01:44:51;;;;;;;20.17;10.15;;;;;;;3.67;100.00;96986.25;5025832;28;20102;-64
2021/10/17 01:47:16;;;;;;;19.92;12.93;;;;;;;3.76;100.00;96987.09;5017818;28;20054;-64
2021/10/17 01:49:42;;;;;;;16.90;10.80;;;;;;;3.92;100.00;96987.44;5017561;28;20045;-64
2021/10/17 01:52:08;;;;;;;20.45;11.90;;;;;;;3.88;100.00;96981.06;5021573;28;20081;-63
2021/10/17 01:54:34;;;;;;;17.45;10.40;;;;;;;3.82;100.00;96987.75;5005215;28;20080;-64
2021/10/17 01:56:59;;;;;;;19.58;11.80;;;;;;;4.02;100.00;96987.13;5023010;28;20044;-62
2021/10/17 01:59:25;;;;;;;21.42;11.55;;;;;;;3.97;100.00;96983.78;5022060;28;20099;-64
2021/10/17 02:01:50;;;;;;;25.02;13.48;;;;;;;4.13;100.00;96986.84;5019938;28;20045;-64
2021/10/17 02:04:16;;;;;;;23.70;12.55;;;;;;;4.24;100.00;96987.31;5020381;28;20073;-64
2021/10/17 02:06:41;;;;;;;21.55;12.82;;;;;;;4.32;100.00;96986.50;5030083;28;20048;-64
2021/10/17 02:09:06;;;;;;;20.08;12.13;;;;;;;4.42;100.00;96983.50;5031404;28;20068;-63
2021/10/17 02:11:32;;;;;;;24.23;12.70;;;;;;;4.43;100.00;96976.16;5000891;28;20068;-62
2021/10/17 02:13:57;;;;;;;21.45;12.10;;;;;;;4.44;100.00;96986.69;5025300;28;20045;-64
2021/10/17 02:16:23;;;;;;;20.30;12.05;;;;;;;4.48;100.00;96976.00;5025618;28;20374;-64
2021/10/17 02:18:48;;;;;;;19.58;11.57;;;;;;;4.58;100.00;96978.38;5031815;28;20159;-64
2021/10/17 02:21:14;;;;;;;22.00;12.13;;;;;;;4.66;100.00;96985.69;5008285;28;20128;-63
2021/10/17 02:23:39;;;;;;;18.92;11.40;;;;;;;4.64;100.00;96985.22;5028968;28;20041;-64
2021/10/17 02:26:06;;;;;;;19.83;12.35;;;;;;;4.65;100.00;96989.56;5014131;28;20052;-62
2021/10/17 02:28:32;;;;;;;19.70;12.02;;;;;;;4.71;100.00;96993.69;5029489;28;20056;-65
2021/10/17 02:30:58;;;;;;;19.02;11.00;;;;;;;4.69;100.00;96987.00;5041885;28;20051;-62
2021/10/17 02:33:24;;;;;;;19.55;11.85;;;;;;;4.74;100.00;96993.03;5038198;28;20048;-61
2021/10/17 02:35:49;;;;;;;19.77;12.00;;;;;;;4.76;100.00;96985.38;5043626;28;20041;-58
2021/10/17 02:38:15;;;;;;;20.88;12.07;;;;;;;4.83;100.00;96993.03;5018296;28;20038;-59
2021/10/17 02:40:40;;;;;;;20.73;11.98;;;;;;;4.92;100.00;96995.75;5024272;28;20115;-61
2021/10/17 02:43:07;;;;;;;22.05;12.38;;;;;;;4.89;100.00;96994.44;5033114;28;20079;-59
2021/10/17 02:45:34;;;;;;;20.90;12.10;;;;;;;4.79;100.00;96998.31;5003351;28;20104;-60
2021/10/17 02:47:59;;;;;;;21.20;11.88;;;;;;;4.58;100.00;96984.59;5016647;28;20204;-60
2021/10/17 02:50:24;;;;;;;23.35;13.07;;;;;;;4.38;100.00;96987.97;5009911;28;20181;-60
2021/10/17 02:52:50;;;;;;;23.08;14.07;;;;;;;4.14;100.00;96989.22;4999440;28;20071;-59
2021/10/17 02:55:15;;;;;;;24.67;14.05;;;;;;;4.21;100.00;96994.97;5022156;28;20052;-59
2021/10/17 02:57:41;;;;;;;27.60;14.43;;;;;;;4.29;100.00;96995.31;5030494;28;20041;-61
2021/10/17 03:00:07;;;;;;;26.50;14.50;;;;;;;4.26;100.00;96988.59;5011016;28;20038;-61
2021/10/17 03:02:32;;;;;;;32.05;15.88;;;;;;;4.22;100.00;96987.63;5026267;28;20044;-59
2021/10/17 03:04:58;;;;;;;25.65;14.15;;;;;;;4.15;100.00;96990.03;5042826;28;20402;-58
2021/10/17 03:07:23;;;;;;;28.55;15.65;;;;;;;4.25;100.00;96984.31;5022306;28;20591;-60
2021/10/17 03:09:49;;;;;;;31.88;16.02;;;;;;;4.09;100.00;96981.25;5023508;28;20612;-61
2021/10/17 03:12:14;;;;;;;33.58;15.85;;;;;;;4.16;100.00;96981.56;5017852;28;20136;-60
2021/10/17 03:14:39;;;;;;;30.13;15.85;;;;;;;4.40;100.00;96977.59;5014324;28;20045;-59
2021/10/17 03:17:08;;;;;;;32.75;16.30;;;;;;;4.54;100.00;96978.22;5006873;28;20050;-60
2021/10/17 03:19:33;;;;;;;35.25;16.08;;;;;;;4.74;100.00;96973.25;5032149;28;20516;-58
2021/10/17 03:21:59;;;;;;;31.80;16.33;;;;;;;4.89;100.00;96975.47;5042192;28;20048;-61
2021/10/17 03:24:24;;;;;;;36.72;16.33;;;;;;;5.02;100.00;96968.22;5033970;28;20046;-58
2021/10/17 03:26:50;;;;;;;31.45;16.25;;;;;;;5.19;100.00;96963.91;5025611;28;20052;-59
2021/10/17 03:29:15;;;;;;;30.65;14.75;;;;;;;5.19;100.00;96961.97;5018653;28;20137;-61
2021/10/17 03:31:42;;;;;;;31.85;15.85;;;;;;;5.21;100.00;96967.09;4997342;28;20056;-61
2021/10/17 03:34:07;;;;;;;30.17;16.15;;;;;;;5.24;100.00;96960.97;5017269;28;20072;-61
2021/10/17 03:36:32;;;;;;;36.30;17.25;;;;;;;5.40;100.00;96966.69;5021957;28;20509;-61
2021/10/17 03:38:58;;;;;;;28.25;16.08;;;;;;;5.45;100.00;96970.00;5016358;28;20632;-61
2021/10/17 03:41:23;;;;;;;32.85;15.32;;;;;;;5.49;100.00;96965.53;5024866;28;20993;-62
2021/10/17 03:43:49;;;;;;;37.33;16.85;;;;;;;5.30;100.00;96970.56;5027830;28;20045;-61
2021/10/17 03:46:15;;;;;;;35.50;17.33;;;;;;;5.24;100.00;96967.22;5001477;28;20406;-62
2021/10/17 03:48:41;;;;;;;33.22;17.15;;;;;;;5.39;100.00;96971.31;5023443;28;20044;-61
2021/10/17 03:51:08;;;;;;;35.92;17.23;;;;;;;5.49;100.00;96968.25;5007450;28;20045;-61
2021/10/17 03:53:35;;;;;;;36.83;17.58;;;;;;;5.53;100.00;96963.75;5025518;28;20409;-61
2021/10/17 03:56:00;;;;;;;38.38;18.27;;;;;;;5.66;100.00;96967.34;5011409;28;20038;-60
2021/10/17 03:58:26;;;;;;;42.33;18.55;;;;;;;5.74;100.00;96968.41;5004545;28;20071;-61
2021/10/17 04:00:51;;;;;;;50.70;21.70;;;;;;;5.87;100.00;96972.03;5012085;28;20402;-60
2021/10/17 04:03:18;;;;;;;47.72;19.65;;;;;;;5.80;100.00;96971.75;5028942;28;20059;-60
2021/10/17 04:05:43;;;;;;;57.50;23.30;;;;;;;5.74;100.00;96965.69;5026794;28;20046;-61
2021/10/17 04:08:09;;;;;;;62.38;24.48;;;;;;;5.80;100.00;96966.31;5011763;28;20116;-61
2021/10/17 04:10:35;;;;;;;63.00;23.65;;;;;;;5.99;100.00;96976.78;5034556;28;20048;-62
2021/10/17 04:13:00;;;;;;;59.60;24.65;;;;;;;6.03;100.00;96964.94;5023996;28;20049;-61
2021/10/17 04:15:26;;;;;;;62.20;24.17;;;;;;;6.05;100.00;96973.56;5034442;28;20622;-63
2021/10/17 04:17:51;;;;;;;56.17;24.17;;;;;;;6.16;100.00;96967.72;5021932;28;20048;-62
2021/10/17 04:20:17;;;;;;;59.83;23.88;;;;;;;6.22;100.00;96966.41;5026733;28;20468;-63
2021/10/17 04:22:43;;;;;;;58.28;24.08;;;;;;;6.24;100.00;96964.94;5020572;28;20825;-61
2021/10/17 04:25:09;;;;;;;64.25;24.08;;;;;;;6.31;100.00;96965.19;5014016;28;20045;-62
2021/10/17 04:27:35;;;;;;;61.67;22.77;;;;;;;6.30;100.00;96963.63;5020091;28;20065;-57
2021/10/17 04:30:02;;;;;;;64.07;23.60;;;;;;;5.98;100.00;96958.88;5017146;28;20132;-63
2021/10/17 04:32:28;;;;;;;89.32;27.92;;;;;;;5.52;100.00;96964.84;5031503;28;20497;-61
2021/10/17 04:34:54;;;;;;;80.35;27.55;;;;;;;5.43;100.00;96963.31;5031096;28;20049;-62
2021/10/17 04:37:19;;;;;;;105.40;29.25;;;;;;;5.43;100.00;96966.03;5014738;28;20038;-60
2021/10/17 04:39:45;;;;;;;109.45;30.60;;;;;;;5.40;100.00;96970.19;5021915;28;20052;-61
2021/10/17 04:42:10;;;;;;;94.07;31.17;;;;;;;5.41;100.00;96968.28;5012100;28;20049;-61
2021/10/17 04:44:37;;;;;;;91.68;30.60;;;;;;;5.43;100.00;96958.66;5025909;28;20045;-62
2021/10/17 04:47:03;;;;;;;92.15;28.38;;;;;;;5.37;100.00;96965.41;5033789;28;20029;-62
2021/10/17 04:49:28;;;;;;;98.20;31.63;;;;;;;5.37;100.00;96960.00;5032955;28;20041;-62
2021/10/17 04:51:54;;;;;;;257.05;34.58;;;;;;;5.33;100.00;96964.44;5029777;28;20077;-62
2021/10/17 04:54:20;;;;;;;130.50;31.10;;;;;;;5.33;100.00;96965.28;5009339;28;20506;-61
2021/10/17 04:56:46;;;;;;;103.55;32.58;;;;;;;5.39;100.00;96974.03;5023010;28;20053;-59
2021/10/17 04:59:13;;;;;;;119.80;33.50;;;;;;;5.46;100.00;96968.88;5012777;28;20049;-62
2021/10/17 05:01:38;;;;;;;145.75;34.10;;;;;;;5.46;100.00;96965.38;5033643;28;20040;-58
2021/10/17 05:04:04;;;;;;;105.53;33.67;;;;;;;5.64;100.00;96961.44;5035819;28;20033;-62
2021/10/17 05:06:29;;;;;;;93.45;30.02;;;;;;;5.88;100.00;96965.47;5021455;28;20052;-62
2021/10/17 05:08:54;;;;;;;112.40;31.75;;;;;;;5.94;100.00;96961.41;5024864;28;20048;-57
2021/10/17 05:11:23;;;;;;;94.32;30.23;;;;;;;6.01;100.00;96960.94;5011869;28;20044;-60
2021/10/17 05:13:48;;;;;;;81.60;28.48;;;;;;;6.09;100.00;96960.88;5011170;28;20426;-59
2021/10/17 05:16:14;;;;;;;89.97;29.30;;;;;;;6.23;100.00;96965.25;5025220;28;20067;-58
2021/10/17 05:18:39;;;;;;;84.43;29.27;;;;;;;6.31;100.00;96967.91;5032187;28;20411;-58
2021/10/17 05:21:05;;;;;;;75.82;27.55;;;;;;;6.53;100.00;96970.63;5008145;28;20124;-58
2021/10/17 05:23:30;;;;;;;79.90;27.77;;;;;;;6.62;100.00;96965.91;5027498;28;20041;-60
2021/10/17 05:25:55;;;;;;;83.45;30.30;;;;;;;6.64;100.00;96972.59;5013772;28;20189;-60
2021/10/17 05:28:21;;;;;;;84.85;30.02;;;;;;;6.64;100.00;96969.88;5016071;28;20064;-60
2021/10/17 05:30:46;;;;;;;84.95;28.92;;;;;;;6.62;100.00;96974.06;5024101;28;20076;-63
2021/10/17 05:33:12;;;;;;;79.35;27.65;;;;;;;6.62;100.00;96972.13;4997525;28;20045;-61
2021/10/17 05:35:37;;;;;;;80.18;29.40;;;;;;;6.74;100.00;96971.41;5019171;28;20124;-60
2021/10/17 05:38:02;;;;;;;75.95;27.30;;;;;;;6.81;100.00;96971.66;5022670;28;20071;-63
2021/10/17 05:40:28;;;;;;;85.15;30.02;;;;;;;6.85;100.00;96977.22;5022873;28;20402;-60
2021/10/17 05:42:53;;;;;;;82.55;29.52;;;;;;;6.86;100.00;96962.47;5008904;28;20038;-62
2021/10/17 05:45:19;;;;;;;70.05;26.95;;;;;;;6.79;100.00;96973.09;5021935;28;20041;-63
2021/10/17 05:47:44;;;;;;;130.63;29.98;;;;;;;6.50;100.00;96974.84;5030965;28;20546;-59
2021/10/17 05:50:10;;;;;;;160.80;30.88;;;;;;;6.28;100.00;96975.94;5033954;28;20040;-61
2021/10/17 05:52:36;;;;;;;100.07;29.60;;;;;;;6.24;100.00;96970.38;5027679;28;20049;-62
2021/10/17 05:55:01;;;;;;;105.40;32.40;;;;;;;6.21;100.00;96976.50;5014629;28;20045;-61
2021/10/17 05:57:26;;;;;;;86.38;29.65;;;;;;;6.40;100.00;96978.72;5005029;28;20046;-60
2021/10/17 05:59:52;;;;;;;91.20;30.25;;;;;;;6.53;100.00;96976.06;5009644;28;20129;-62
2021/10/17 06:02:18;;;;;;;89.43;29.98;;;;;;;6.63;100.00;96984.63;5014825;28;20049;-60
2021/10/17 06:04:44;;;;;;;84.93;28.30;;;;;;;6.73;100.00;96986.13;5039944;28;20069;-60
2021/10/17 06:07:11;;;;;;;88.10;28.20;;;;;;;6.74;100.00;96984.22;5014505;28;20041;-60
2021/10/17 06:09:38;;;;;;;82.75;27.85;;;;;;;6.75;100.00;96986.59;5023724;28;20049;-60
2021/10/17 06:12:05;;;;;;;81.75;29.75;;;;;;;6.80;100.00;96985.59;5024515;28;20077;-63
2021/10/17 06:14:31;;;;;;;77.50;27.75;;;;;;;6.69;100.00;96993.38;5016063;28;20038;-60
2021/10/17 06:16:57;;;;;;;67.82;26.45;;;;;;;6.67;100.00;96993.72;5015824;28;20049;-62
2021/10/17 06:19:22;;;;;;;73.57;28.83;;;;;;;6.75;100.00;96999.41;5018472;28;20407;-63
2021/10/17 06:21:48;;;;;;;69.65;26.48;;;;;;;6.70;100.00;96998.50;5025675;28;20055;-61
2021/10/17 06:24:14;;;;;;;74.72;26.67;;;;;;;6.66;100.00;96999.47;5016634;28;20052;-60
2021/10/17 06:26:40;;;;;;;72.18;26.15;;;;;;;6.52;100.00;97002.50;5025769;28;20728;-59
2021/10/17 06:29:05;;;;;;;81.80;27.58;;;;;;;6.48;100.00;96996.09;5010895;28;20049;-62
2021/10/17 06:31:30;;;;;;;71.65;25.30;;;;;;;6.51;100.00;97000.91;5021741;28;20077;-59
2021/10/17 06:33:56;;;;;;;82.53;26.25;;;;;;;6.54;100.00;97005.69;5024625;28;20525;-62
2021/10/17 06:36:21;;;;;;;71.10;26.35;;;;;;;6.55;100.00;97001.81;5018571;28;20104;-60
2021/10/17 06:38:47;;;;;;;68.53;25.48;;;;;;;6.66;100.00;96999.47;5025006;28;20045;-62
2021/10/17 06:41:12;;;;;;;63.03;23.92;;;;;;;6.75;100.00;97005.66;5018924;28;20041;-60
2021/10/17 06:43:37;;;;;;;70.60;22.08;;;;;;;6.59;100.00;97001.94;5025460;28;20041;-58
2021/10/17 06:46:03;;;;;;;65.72;23.10;;;;;;;6.73;100.00;97001.69;5007675;28;20080;-61
2021/10/17 06:48:28;;;;;;;65.57;24.00;;;;;;;6.67;100.00;96996.44;5027629;28;20052;-62
2021/10/17 06:50:54;;;;;;;60.97;22.77;;;;;;;6.74;100.00;96995.91;5029621;28;20041;-59
2021/10/17 06:53:19;;;;;;;65.55;23.65;;;;;;;6.94;100.00;96999.72;5011749;28;20105;-59
2021/10/17 06:55:45;;;;;;;61.25;23.40;;;;;;;7.02;100.00;96993.41;5027404;28;20048;-60
2021/10/17 06:58:10;;;;;;;60.20;22.33;;;;;;;6.91;100.00;96999.59;5018890;28;20053;-62
2021/10/17 07:00:35;;;;;;;64.57;23.55;;;;;;;6.73;100.00;97002.47;5009531;28;20047;-58
2021/10/17 07:03:01;;;;;;;72.00;24.00;;;;;;;6.75;100.00;97008.38;5029921;28;20128;-62
2021/10/17 07:05:26;;;;;;;66.85;25.45;;;;;;;6.89;100.00;97010.81;5022619;28;21111;-59
2021/10/17 07:07:52;;;;;;;67.60;25.75;;;;;;;6.95;100.00;97006.75;5027328;28;20077;-61
2021/10/17 07:10:17;;;;;;;62.58;25.13;;;;;;;7.08;100.00;97011.09;4998276;28;20074;-62
2021/10/17 07:12:43;;;;;;;62.15;22.50;;;;;;;7.18;100.00;97007.16;5020168;28;20060;-61
2021/10/17 07:15:08;;;;;;;59.80;22.92;;;;;;;7.19;100.00;97008.75;5023369;28;20117;-60
2021/10/17 07:17:34;;;;;;;66.82;23.45;;;;;;;7.18;100.00;97015.31;5030186;28;20029;-60
2021/10/17 07:20:00;;;;;;;62.65;23.95;;;;;;;7.22;100.00;97010.81;5014380;28;20403;-59
2021/10/17 07:22:25;;;;;;;68.05;22.42;;;;;;;7.23;100.00;97014.31;5017105;28;20041;-62
2021/10/17 07:24:50;;;;;;;64.18;22.77;;;;;;;7.30;100.00;97019.22;5022305;28;20044;-60
2021/10/17 07:27:16;;;;;;;56.67;22.20;;;;;;;7.34;100.00;97007.31;5017352;28;20520;-60
2021/10/17 07:29:41;;;;;;;61.63;22.90;;;;;;;7.37;100.00;97017.53;5011541;28;20048;-59
2021/10/17 07:32:07;;;;;;;60.40;22.70;;;;;;;7.53;100.00;97022.34;5031470;28;20047;-59
2021/10/17 07:34:32;;;;;;;62.38;23.42;;;;;;;7.49;100.00;97024.94;5016800;28;20127;-60
2021/10/17 07:36:58;;;;;;;66.93;22.85;;;;;;;7.50;100.00;97023.00;5013938;28;20046;-57
2021/10/17 07:39:23;;;;;;;60.88;22.33;;;;;;;7.59;100.00;97026.44;5025935;28;20049;-59
2021/10/17 07:41:49;;;;;;;61.85;24.70;;;;;;;7.61;100.00;97024.16;5022320;28;20049;-60
2021/10/17 07:44:16;;;;;;;75.18;24.05;;;;;;;7.59;100.00;97026.44;5026603;28;20051;-62
2021/10/17 07:46:42;;;;;;;62.55;22.42;;;;;;;7.53;100.00;97030.53;5030696;28;20118;-58
2021/10/17 07:49:07;;;;;;;64.68;25.15;;;;;;;7.55;100.00;97026.31;5024284;28;20065;-62
2021/10/17 07:51:33;;;;;;;62.60;24.38;;;;;;;7.50;100.00;97033.91;5014328;28;20053;-60
2021/10/17 07:53:59;;;;;;;70.18;26.98;;;;;;;7.53;100.00;97034.03;5023792;28;20128;-60
2021/10/17 07:56:24;;;;;;;73.82;34.05;;;;;;;7.53;100.00;97035.97;5024587;28;20061;-59
2021/10/17 07:58:51;;;;;;;78.00;33.67;;;;;;;7.56;100.00;97038.81;5024392;28;20056;-59
2021/10/17 08:01:16;;;;;;;72.05;27.92;;;;;;;7.56;100.00;97038.81;5015843;28;20041;-59
2021/10/17 08:03:42;;;;;;;73.70;29.30;;;;;;;7.66;100.00;97035.63;5028550;28;20052;-58
2021/10/17 08:06:07;;;;;;;69.97;26.15;;;;;;;7.72;100.00;97035.41;5009605;28;20049;-62
2021/10/17 08:08:32;;;;;;;65.32;24.25;;;;;;;7.65;100.00;97041.41;5016343;28;20041;-59
2021/10/17 08:10:58;;;;;;;70.35;27.50;;;;;;;7.65;100.00;97042.22;5022251;28;20060;-61
2021/10/17 08:13:25;;;;;;;73.55;26.65;;;;;;;7.74;100.00;97044.03;5023871;28;20931;-63
2021/10/17 08:15:51;;;;;;;64.30;27.02;;;;;;;7.79;100.00;97046.56;5033407;28;20045;-62
2021/10/17 08:18:16;;;;;;;69.20;26.25;;;;;;;7.87;100.00;97050.31;5020314;28;20207;-60
2021/10/17 08:20:42;;;;;;;74.85;27.58;;;;;;;7.94;100.00;97045.91;5026446;28;20120;-58
2021/10/17 08:23:07;;;;;;;75.68;31.95;;;;;;;7.87;100.00;97047.56;4992993;28;20156;-59
2021/10/17 08:25:33;;;;;;;77.45;29.85;;;;;;;7.79;100.00;97050.06;5032256;28;20390;-61
2021/10/17 08:27:59;;;;;;;62.35;23.85;;;;;;;7.89;100.00;97048.84;5026384;28;20406;-58
2021/10/17 08:30:24;;;;;;;63.42;23.27;;;;;;;8.00;100.00;97054.63;5025029;28;20646;-60
2021/10/17 08:32:50;;;;;;;64.65;23.25;;;;;;;8.01;100.00;97046.13;5039403;28;20518;-60
2021/10/17 08:35:15;;;;;;;67.53;23.77;;;;;;;7.94;100.00;97058.72;5016648;28;20050;-57
2021/10/17 08:37:41;;;;;;;61.47;23.42;;;;;;;8.10;100.00;97045.19;5030853;28;20483;-57
2021/10/17 08:40:07;;;;;;;61.40;21.80;;;;;;;8.26;100.00;97056.22;5023473;28;20050;-61
2021/10/17 08:42:33;;;;;;;59.13;21.45;;;;;;;8.31;100.00;97051.31;5040595;28;20401;-60
2021/10/17 08:44:58;;;;;;;63.85;22.20;;;;;;;8.22;100.00;97045.19;5040909;28;20052;-59
2021/10/17 08:47:27;;;;;;;67.15;24.08;;;;;;;8.23;100.00;97044.06;5021567;28;20135;-60
2021/10/17 08:49:55;;;;;;;69.57;25.45;;;;;;;8.18;100.00;97056.00;5017123;28;20049;-59
2021/10/17 08:52:21;;;;;;;64.80;23.60;;;;;;;8.20;100.00;97052.94;5005577;28;20063;-60
2021/10/17 08:54:46;;;;;;;57.97;22.05;;;;;;;8.27;100.00;97064.06;5023683;28;20037;-55
2021/10/17 08:57:12;;;;;;;59.83;21.83;;;;;;;8.22;100.00;97065.06;5026566;28;20036;-59
2021/10/17 08:59:44;;;;;;;64.57;21.25;;;;;;;8.44;100.00;97062.25;5019534;28;20037;-60
2021/10/17 09:02:14;;;;;;;60.60;22.38;;;;;;;8.63;100.00;97069.84;5014591;28;20296;-57
2021/10/17 09:04:41;;;;;;;53.38;20.58;;;;;;;8.73;100.00;97059.25;5031528;28;20140;-58
2021/10/17 09:07:22;;;;;;;56.22;20.73;;;;;;;8.72;100.00;97059.59;5026586;28;20402;-61
2021/10/17 09:10:22;;;;;;;51.47;19.05;;;;;;;8.87;100.00;97063.53;5037752;28;20578;-62
2021/10/17 09:12:48;;;;;;;56.50;21.40;;;;;;;8.96;100.00;97061.44;4976282;28;20523;-60
2021/10/17 09:15:27;;;;;;;52.63;19.83;;;;;;;9.01;100.00;97066.66;5011091;28;20041;-59
2021/10/17 09:18:05;;;;;;;48.45;19.17;;;;;;;9.14;100.00;97072.88;5020607;28;20060;-61
2021/10/17 09:20:35;;;;;;;53.55;20.83;;;;;;;8.95;100.00;97065.31;5019175;28;20866;-57
2021/10/17 09:23:03;;;;;;;52.08;20.52;;;;;;;9.01;100.00;97063.13;5020208;28;20042;-60
2021/10/17 09:25:33;;;;;;;51.40;19.75;;;;;;;8.90;100.00;97062.84;4999918;28;20041;-60
2021/10/17 09:27:59;;;;;;;50.33;20.25;;;;;;;9.16;100.00;97065.13;5017870;28;20073;-59
2021/10/17 09:30:25;;;;;;;46.55;20.10;;;;;;;9.07;100.00;97057.06;5025599;28;20498;-61
2021/10/17 09:32:50;;;;;;;47.90;20.77;;;;;;;9.14;100.00;97065.47;5040006;28;20044;-59
2021/10/17 09:35:16;;;;;;;45.58;18.45;;;;;;;9.14;100.00;97064.66;5034718;28;20045;-59
2021/10/17 09:37:43;;;;;;;50.28;20.38;;;;;;;9.24;100.00;97066.09;5039805;28;20230;-57
2021/10/17 09:40:20;;;;;;;46.80;19.15;;;;;;;9.00;100.00;97067.78;5034802;28;20486;-59
2021/10/17 09:43:13;;;;;;;47.55;19.38;;;;;;;9.05;100.00;97061.28;5033487;28;20128;-57
2021/10/17 09:45:42;;;;;;;45.33;18.80;;;;;;;9.21;100.00;97061.34;5027989;28;20085;-60
2021/10/17 09:48:08;;;;;;;52.70;20.80;;;;;;;9.06;100.00;97063.69;5014537;28;20041;-59
2021/10/17 09:50:34;;;;;;;48.03;19.30;;;;;;;9.23;100.00;97059.06;5019640;28;20041;-61
2021/10/17 09:53:03;;;;;;;45.78;19.40;;;;;;;9.22;100.00;97063.75;5019333;28;20045;-57
2021/10/17 09:55:32;;;;;;;48.37;20.37;;;;;;;9.17;100.00;97058.50;5017342;28;20053;-61
2021/10/17 09:57:59;;;;;;;51.03;19.83;;;;;;;9.10;100.00;97058.31;5019355;28;20381;-60
2021/10/17 10:00:24;;;;;;;48.75;19.55;;;;;;;9.14;100.00;97065.47;5017376;28;20044;-61
2021/10/17 10:02:52;;;;;;;47.95;19.70;;;;;;;9.19;100.00;97057.00;5024547;28;20053;-59
2021/10/17 10:05:30;;;;;;;52.78;20.67;;;;;;;9.19;100.00;97061.69;5025207;28;20044;-60
2021/10/17 10:08:03;;;;;;;50.95;21.10;;;;;;;9.17;100.00;97062.03;5034249;28;20106;-60
2021/10/17 10:10:30;;;;;;;48.13;20.45;;;;;;;9.20;100.00;97066.03;5037550;28;20068;-59
2021/10/17 10:13:02;;;;;;;46.50;19.50;;;;;;;9.49;100.00;97053.09;5029179;28;20084;-60
2021/10/17 10:15:29;;;;;;;54.15;20.13;;;;;;;9.51;100.00;97064.50;5022951;28;20132;-60
2021/10/17 10:17:56;;;;;;;46.28;19.13;;;;;;;9.32;100.00;97063.22;5016954;28;20042;-63
2021/10/17 10:20:23;;;;;;;41.33;18.23;;;;;;;9.52;100.00;97057.88;4992343;28;20088;-60
2021/10/17 10:22:49;;;;;;;44.58;18.98;;;;;;;9.53;100.00;97059.47;5013445;28;20045;-61
2021/10/17 10:25:16;;;;;;;43.72;19.55;;;;;;;9.54;100.00;97059.13;5029884;28;20049;-59
2021/10/17 10:27:42;;;;;;;47.10;19.73;;;;;;;9.41;100.00;97060.31;5036954;28;20061;-62
2021/10/17 10:30:27;;;;;;;51.80;20.15;;;;;;;9.60;100.00;97067.88;5024993;28;20087;-61
2021/10/17 10:33:15;;;;;;;45.35;18.88;;;;;;;9.76;100.00;97062.41;5043535;28;20118;-60
2021/10/17 10:36:10;;;;;;;48.22;19.42;;;;;;;9.71;100.00;97060.72;5043065;28;20032;-61
2021/10/17 10:38:53;;;;;;;47.42;18.08;;;;;;;9.96;100.00;97063.28;5043127;28;20574;-59
2021/10/17 10:41:28;;;;;;;52.53;20.92;;;;;;;9.74;100.00;97057.28;5038338;28;20060;-60
2021/10/17 10:44:14;;;;;;;48.28;20.58;;;;;;;9.87;100.00;97062.69;5035982;28;20056;-61
2021/10/17 10:46:41;;;;;;;44.90;18.67;;;;;;;9.85;100.00;97064.94;5028562;28;20049;-60
2021/10/17 10:49:06;;;;;;;48.10;19.25;;;;;;;9.60;100.00;97062.41;5037312;28;20045;-60
2021/10/17 10:51:41;;;;;;;48.80;19.45;;;;;;;9.64;100.00;97063.28;5042868;28;20095;-56
2021/10/17 10:54:27;;;;;;;47.38;19.67;;;;;;;9.63;100.00;97069.88;5037234;28;20037;-58
2021/10/17 10:56:56;;;;;;;44.85;19.55;;;;;;;9.66;100.00;97060.97;5038429;28;20051;-59
2021/10/17 10:59:43;;;;;;;45.45;18.42;;;;;;;9.85;100.00;97062.22;5042394;28;20510;-61
2021/10/17 11:02:17;;;;;;;44.78;18.17;;;;;;;10.04;100.00;97064.25;5023723;28;20128;-61
2021/10/17 11:04:44;;;;;;;43.17;18.08;;;;;;;10.05;100.00;97060.38;5025864;28;20133;-58
2021/10/17 11:07:19;;;;;;;43.42;17.83;;;;;;;10.12;99.79;97064.06;5030435;28;20040;-62
2021/10/17 11:09:45;;;;;;;44.25;19.75;;;;;;;10.27;98.64;97051.50;5024554;28;20045;-60
2021/10/17 11:12:30;;;;;;;39.47;18.13;;;;;;;10.31;98.02;97049.66;5023322;28;20429;-62
2021/10/17 11:15:00;;;;;;;42.15;18.83;;;;;;;10.37;97.64;97046.66;5049631;28;20121;-62